createdAt,value
2018-08-23T05:58:25.341Z,672
2018-08-23T05:58:45.551Z,672
2018-08-23T05:59:05.683Z,676
2018-08-23T05:59:25.816Z,676
2018-08-23T05:59:45.962Z,676
2018-08-23T06:00:06.128Z,676
2018-08-23T06:00:26.297Z,676
2018-08-23T06:00:46.458Z,680
2018-08-23T06:01:06.618Z,680
2018-08-23T06:01:26.753Z,680
2018-08-23T06:01:46.952Z,680
2018-08-23T06:02:07.115Z,684
2018-08-23T06:02:27.263Z,684
2018-08-23T06:02:47.447Z,684
2018-08-23T06:03:07.672Z,684
2018-08-23T06:03:27.828Z,684
2018-08-23T06:03:47.973Z,684
2018-08-23T06:04:08.216Z,688
2018-08-23T06:04:28.394Z,688
2018-08-23T06:04:48.557Z,692
2018-08-23T06:05:08.679Z,692
2018-08-23T06:05:28.845Z,692
2018-08-23T06:05:48.976Z,692
2018-08-23T06:06:09.083Z,696
2018-08-23T06:06:29.244Z,696
2018-08-23T06:06:49.404Z,696
2018-08-23T06:07:09.583Z,700
2018-08-23T06:07:29.760Z,696
2018-08-23T06:07:49.906Z,700
2018-08-23T06:08:10.055Z,700
2018-08-23T06:08:30.233Z,704
2018-08-23T06:08:50.368Z,700
2018-08-23T06:09:10.577Z,704
2018-08-23T06:09:30.766Z,704
2018-08-23T06:09:50.923Z,704
2018-08-23T06:10:11.081Z,704
2018-08-23T06:10:31.194Z,704
2018-08-23T06:10:51.381Z,708
2018-08-23T06:11:11.585Z,708
2018-08-23T06:11:31.790Z,708
2018-08-23T06:11:51.924Z,708
2018-08-23T06:12:12.156Z,708
2018-08-23T06:12:32.309Z,712
2018-08-23T06:12:52.474Z,712
2018-08-23T06:13:12.674Z,712
2018-08-23T06:13:32.888Z,712
2018-08-23T06:13:53.097Z,716
2018-08-23T06:14:13.440Z,716
2018-08-23T06:14:33.583Z,716
2018-08-23T06:14:53.826Z,716
2018-08-23T06:15:13.999Z,716
2018-08-23T06:15:34.223Z,720
2018-08-23T06:15:54.362Z,720
2018-08-23T06:25:11.444Z,740
2018-08-23T06:25:31.611Z,744
2018-08-23T06:25:51.777Z,744
2018-08-23T06:26:11.931Z,748
2018-08-23T06:26:32.122Z,744
2018-08-23T06:26:52.288Z,748
2018-08-23T06:27:12.468Z,748
2018-08-23T06:27:32.839Z,748
2018-08-23T06:27:52.985Z,752
2018-08-23T06:28:13.199Z,752
2018-08-23T06:28:33.385Z,756
2018-08-23T06:28:53.630Z,752
2018-08-23T06:29:13.897Z,756
2018-08-23T06:29:34.122Z,756
2018-08-23T06:29:54.351Z,756
2018-08-23T06:30:14.552Z,756
2018-08-23T06:30:34.791Z,756
2018-08-23T06:30:55.010Z,756
2018-08-23T06:31:15.214Z,760
2018-08-23T06:31:35.363Z,760
2018-08-23T06:31:55.582Z,760
2018-08-23T06:32:15.764Z,764
2018-08-23T06:32:36.041Z,764
2018-08-23T06:32:56.503Z,768
2018-08-23T06:33:17.072Z,768
2018-08-23T06:33:37.176Z,772
2018-08-23T06:33:57.551Z,772
2018-08-23T06:34:17.800Z,776
2018-08-23T06:34:37.953Z,776
2018-08-23T06:34:58.204Z,776
2018-08-23T06:35:18.406Z,776
2018-08-23T06:35:38.661Z,776
2018-08-23T06:35:58.866Z,780
2018-08-23T06:36:19.119Z,784
2018-08-23T06:36:39.392Z,784
2018-08-23T06:36:59.565Z,784
2018-08-23T06:37:19.789Z,788
2018-08-23T06:37:40.042Z,788
2018-08-23T06:38:00.167Z,788
2018-08-23T06:38:20.375Z,792
2018-08-23T06:38:40.580Z,792
2018-08-23T06:39:00.852Z,792
2018-08-23T06:39:21.032Z,796
2018-08-23T06:39:41.200Z,796
2018-08-23T06:40:01.475Z,796
2018-08-23T06:40:21.642Z,800
2018-08-23T06:40:41.865Z,800
2018-08-23T06:41:02.162Z,804
2018-08-23T06:41:22.356Z,804
2018-08-23T06:41:42.547Z,808
2018-08-23T06:42:02.728Z,808
2018-08-23T06:42:22.910Z,808
2018-08-23T06:42:43.115Z,808
2018-08-23T06:43:03.315Z,812
2018-08-23T06:43:23.596Z,812
2018-08-23T06:43:43.785Z,816
2018-08-23T06:44:04.016Z,816
2018-08-23T06:44:24.317Z,816
2018-08-23T06:44:44.493Z,820
2018-08-23T06:45:04.697Z,820
2018-08-23T06:45:24.932Z,824
2018-08-23T06:45:45.153Z,824
2018-08-23T06:46:24.960Z,832
2018-08-23T06:46:45.124Z,832
2018-08-23T06:47:05.297Z,828
2018-08-23T06:47:25.464Z,836
2018-08-23T06:47:45.650Z,836
2018-08-23T06:48:05.843Z,836
2018-08-23T06:48:26.001Z,840
2018-08-23T06:48:46.176Z,840
2018-08-23T06:49:06.407Z,840
2018-08-23T06:49:26.598Z,840
2018-08-23T06:49:46.839Z,840
2018-08-23T06:50:07.053Z,840
2018-08-23T06:50:27.259Z,844
2018-08-23T06:50:47.517Z,844
2018-08-23T06:51:07.777Z,844
2018-08-23T06:51:28.010Z,844
2018-08-23T06:51:48.245Z,848
2018-08-23T06:52:08.582Z,848
2018-08-23T06:52:28.688Z,848
2018-08-23T06:52:48.848Z,848
2018-08-23T06:53:09.105Z,852
2018-08-23T06:53:29.327Z,848
2018-08-23T06:53:49.547Z,848
2018-08-23T06:54:09.695Z,852
2018-08-23T06:54:29.921Z,852
2018-08-23T06:54:50.129Z,852
2018-08-23T06:55:10.387Z,856
2018-08-23T06:55:30.573Z,856
2018-08-23T06:55:50.771Z,860
2018-08-23T06:56:10.967Z,860
2018-08-23T06:56:31.281Z,856
2018-08-23T06:56:51.495Z,864
2018-08-23T06:57:11.956Z,864
2018-08-23T06:57:32.139Z,864
2018-08-23T06:57:52.298Z,864
2018-08-23T06:58:12.497Z,868
2018-08-23T06:58:32.700Z,868
2018-08-23T06:58:53.027Z,868
2018-08-23T06:59:13.122Z,868
2018-08-23T06:59:33.311Z,868
2018-08-23T06:59:53.486Z,872
2018-08-23T07:00:13.877Z,872
2018-08-23T07:00:34.109Z,872
2018-08-23T07:00:54.298Z,872
2018-08-23T07:01:14.500Z,872
2018-08-23T07:01:34.652Z,876
2018-08-23T07:01:54.830Z,880
2018-08-23T07:02:15.069Z,880
2018-08-23T07:02:35.332Z,876
2018-08-23T07:02:55.539Z,880
2018-08-23T07:03:15.728Z,880
2018-08-23T07:03:35.951Z,880
2018-08-23T07:03:56.115Z,884
2018-08-23T07:04:16.380Z,880
2018-08-23T07:04:36.585Z,884
2018-08-23T07:04:56.865Z,884
2018-08-23T07:05:17.087Z,888
2018-08-23T07:05:37.287Z,888
2018-08-23T07:05:57.507Z,884
2018-08-23T07:06:17.676Z,884
2018-08-23T07:06:37.965Z,888
2018-08-23T07:06:58.135Z,888
2018-08-23T07:07:18.350Z,888
2018-08-23T07:07:38.528Z,888
2018-08-23T07:07:58.716Z,892
2018-08-23T07:08:19.008Z,892
2018-08-23T07:08:39.233Z,892
2018-08-23T07:08:59.648Z,892
2018-08-23T07:09:19.869Z,892
2018-08-23T07:09:40.078Z,892
2018-08-23T07:10:00.287Z,896
2018-08-23T07:10:20.526Z,896
2018-08-23T07:10:40.804Z,896
2018-08-23T07:11:00.983Z,900
2018-08-23T07:11:21.215Z,896
2018-08-23T07:11:41.503Z,900
2018-08-23T07:12:01.725Z,900
2018-08-23T07:12:22.364Z,904
2018-08-23T07:12:42.622Z,908
2018-08-23T07:13:02.854Z,904
2018-08-23T07:13:23.384Z,908
2018-08-23T07:13:43.608Z,904
2018-08-23T07:14:03.804Z,908
2018-08-23T07:14:23.999Z,912
2018-08-23T07:14:44.219Z,908
2018-08-23T07:15:04.465Z,912
2018-08-23T07:15:24.676Z,912
2018-08-23T07:15:45.100Z,912
2018-08-23T07:16:05.321Z,912
2018-08-23T07:16:25.591Z,912
2018-08-23T07:16:48.080Z,916
2018-08-23T07:17:09.767Z,916
2018-08-23T07:17:34.467Z,920
2018-08-23T07:17:56.080Z,920
2018-08-23T07:18:16.308Z,920
2018-08-23T07:18:36.554Z,920
2018-08-23T07:18:56.823Z,924
2018-08-23T07:19:18.152Z,924
2018-08-23T07:19:38.438Z,924
2018-08-23T07:19:58.669Z,928
2018-08-23T07:20:18.938Z,928
2018-08-23T07:20:39.191Z,924
2018-08-23T07:20:59.443Z,928
2018-08-23T07:21:19.616Z,936
2018-08-23T07:21:39.836Z,936
2018-08-23T07:22:00.032Z,944
2018-08-23T07:22:20.274Z,948
2018-08-23T07:22:40.522Z,964
2018-08-23T07:23:00.687Z,964
2018-08-23T07:23:20.866Z,980
2018-08-23T07:23:41.055Z,996
2018-08-23T07:24:01.819Z,1000
2018-08-23T07:24:22.231Z,1008
2018-08-23T07:24:42.380Z,1012
2018-08-23T07:25:02.561Z,1020
2018-08-23T07:25:22.802Z,1020
2018-08-23T07:25:43.049Z,1028
2018-08-23T07:26:03.383Z,1028
2018-08-23T07:26:23.716Z,1028
2018-08-23T07:26:43.845Z,1024
2018-08-23T07:27:04.144Z,1024
2018-08-23T07:27:24.363Z,1024
2018-08-23T07:27:44.636Z,1020
2018-08-23T07:28:04.876Z,1020
2018-08-23T07:28:25.156Z,1020
2018-08-23T07:28:45.348Z,1024
2018-08-23T07:29:05.639Z,1024
2018-08-23T07:29:25.854Z,1028
2018-08-23T07:29:46.111Z,1032
2018-08-23T07:30:06.379Z,1040
2018-08-23T07:30:26.441Z,1040
2018-08-23T07:30:46.713Z,1040
2018-08-23T07:31:06.883Z,1040
2018-08-23T07:31:27.089Z,1048
2018-08-23T07:31:47.293Z,1048
2018-08-23T07:32:07.481Z,1048
2018-08-23T07:32:27.642Z,1048
2018-08-23T07:32:47.865Z,1048
2018-08-23T07:33:08.047Z,1052
2018-08-23T07:33:28.282Z,1052
2018-08-23T07:33:48.484Z,1060
2018-08-23T07:34:08.736Z,1052
2018-08-23T07:34:28.981Z,1056
2018-08-23T07:34:49.201Z,1052
2018-08-23T07:35:09.443Z,1048
2018-08-23T07:35:29.645Z,1040
2018-08-23T07:35:49.834Z,1036
2018-08-23T07:36:10.090Z,1020
2018-08-23T07:36:30.327Z,1004
2018-08-23T07:36:50.540Z,1000
2018-08-23T07:37:10.828Z,988
2018-08-23T07:37:31.259Z,980
2018-08-23T07:37:51.568Z,972
2018-08-23T07:38:11.873Z,972
2018-08-23T07:38:32.219Z,964
2018-08-23T07:38:55.123Z,964
2018-08-23T07:39:18.785Z,964
2018-08-23T07:39:39.590Z,960
2018-08-23T07:40:01.587Z,960
2018-08-23T07:40:22.016Z,964
2018-08-23T07:40:43.555Z,964
2018-08-23T07:41:04.094Z,964
2018-08-23T07:41:24.358Z,960
2018-08-23T07:41:44.861Z,960
2018-08-23T07:42:05.140Z,964
2018-08-23T07:42:26.346Z,968
2018-08-23T07:42:46.809Z,964
2018-08-23T07:43:08.139Z,964
2018-08-23T07:43:28.673Z,968
2018-08-23T07:43:52.313Z,964
2018-08-23T07:44:12.899Z,968
2018-08-23T07:44:35.245Z,968
2018-08-23T07:44:56.110Z,972
2018-08-23T07:45:18.539Z,976
2018-08-23T07:45:39.783Z,976
2018-08-23T07:46:02.430Z,976
2018-08-23T07:46:22.963Z,976
2018-08-23T07:46:46.826Z,972
2018-08-23T07:47:07.187Z,980
2018-08-23T07:47:29.629Z,980
2018-08-23T07:47:50.603Z,976
2018-08-23T07:48:11.398Z,980
2018-08-23T07:48:32.402Z,980
2018-08-23T07:48:53.354Z,980
2018-08-23T07:49:13.868Z,980
2018-08-23T07:49:34.232Z,984
2018-08-23T07:49:54.583Z,980
2018-08-23T07:50:15.018Z,984
2018-08-23T07:50:35.473Z,984
2018-08-23T07:50:55.939Z,980
2018-08-23T07:51:18.633Z,980
2018-08-23T07:51:38.933Z,980
2018-08-23T07:51:59.175Z,988
2018-08-23T07:52:19.412Z,980
2018-08-23T07:52:39.757Z,980
2018-08-23T07:53:00.414Z,980
2018-08-23T07:53:20.739Z,980
2018-08-23T07:53:40.892Z,984
2018-08-23T07:54:01.105Z,988
2018-08-23T07:54:21.379Z,984
2018-08-23T07:54:42.098Z,992
2018-08-23T07:55:03.958Z,984
2018-08-23T07:55:24.430Z,984
2018-08-23T07:55:46.615Z,988
2018-08-23T07:56:06.941Z,992
2018-08-23T07:56:27.214Z,988
2018-08-23T07:58:28.094Z,1000
2018-08-23T07:58:49.589Z,996
2018-08-23T07:59:09.805Z,1000
2018-08-23T07:59:30.036Z,996
2018-08-23T07:59:50.295Z,1000
2018-08-23T08:00:10.630Z,1000
2018-08-23T08:00:31.029Z,996
2018-08-23T08:00:51.362Z,1000
2018-08-23T08:01:11.669Z,1000
2018-08-23T08:01:31.951Z,1004
2018-08-23T08:01:52.121Z,1004
2018-08-23T08:02:12.459Z,1004
2018-08-23T08:02:32.996Z,1004
2018-08-23T08:02:53.285Z,1000
2018-08-23T08:03:13.723Z,1004
2018-08-23T08:03:33.921Z,1012
2018-08-23T08:03:54.399Z,1008
2018-08-23T08:04:14.764Z,1004
2018-08-23T08:04:35.278Z,1004
2018-08-23T08:04:55.553Z,1008
2018-08-23T08:05:15.949Z,1008
2018-08-23T08:05:36.894Z,1004
2018-08-23T08:05:57.116Z,1012
2018-08-23T08:06:17.551Z,1012
2018-08-23T08:06:37.842Z,1012
2018-08-23T08:06:58.051Z,1016
2018-08-23T08:07:18.244Z,1016
2018-08-23T08:07:38.593Z,1020
2018-08-23T08:07:59.149Z,1020
2018-08-23T08:08:19.563Z,1020
2018-08-23T08:08:40.317Z,1020
2018-08-23T08:09:01.685Z,1024
2018-08-23T08:09:22.938Z,1032
2018-08-23T08:09:43.369Z,1024
2018-08-23T08:10:03.912Z,1016
2018-08-23T08:10:24.284Z,1028
2018-08-23T08:10:44.619Z,1028
2018-08-23T08:11:04.975Z,1028
2018-08-23T08:11:25.282Z,1024
2018-08-23T08:11:45.642Z,1028
2018-08-23T08:12:05.986Z,1032
2018-08-23T08:12:26.339Z,1044
2018-08-23T08:14:07.745Z,1036
2018-08-23T08:14:28.356Z,1032
2018-08-23T08:14:48.676Z,1036
2018-08-23T08:15:09.059Z,1052
2018-08-23T08:15:29.831Z,1036
2018-08-23T08:15:50.225Z,1040
2018-08-23T08:16:10.666Z,1040
2018-08-23T08:16:31.136Z,1040
2018-08-23T08:16:51.924Z,1040
2018-08-23T08:17:14.678Z,1040
2018-08-23T08:17:35.353Z,1048
2018-08-23T08:17:55.659Z,1052
2018-08-23T08:18:16.125Z,1052
2018-08-23T08:18:36.498Z,1052
2018-08-23T08:18:56.760Z,1052
2018-08-23T08:19:17.202Z,1052
2018-08-23T08:19:37.606Z,1060
2018-08-23T08:19:57.984Z,1056
2018-08-23T08:20:18.304Z,1060
2018-08-23T08:20:38.791Z,1060
2018-08-23T08:21:00.411Z,1060
2018-08-23T08:21:20.527Z,1056
2018-08-23T08:21:41.001Z,1060
2018-08-23T08:22:01.182Z,1060
2018-08-23T08:22:21.580Z,1060
2018-08-23T08:22:41.817Z,1068
2018-08-23T08:23:03.640Z,1064
2018-08-23T08:23:23.907Z,1064
2018-08-23T08:23:44.221Z,1068
2018-08-23T08:24:04.420Z,1072
2018-08-23T08:24:25.025Z,1072
2018-08-23T08:25:08.569Z,1068
2018-08-23T08:25:29.062Z,1072
2018-08-23T08:25:49.415Z,1072
2018-08-23T08:26:09.852Z,1076
2018-08-23T08:26:30.426Z,1072
2018-08-23T08:26:51.133Z,1072
2018-08-23T08:27:12.142Z,1072
2018-08-23T08:27:32.579Z,1080
2018-08-23T08:27:52.903Z,1072
2018-08-23T08:28:13.274Z,1076
2018-08-23T08:28:33.648Z,1084
2018-08-23T08:28:54.117Z,1084
2018-08-23T08:29:14.987Z,1080
2018-08-23T08:29:35.842Z,1076
2018-08-23T08:29:56.943Z,1084
2018-08-23T08:30:18.265Z,1084
2018-08-23T08:30:39.601Z,1088
2018-08-23T08:31:01.010Z,1088
2018-08-23T08:31:22.136Z,1088
2018-08-23T08:31:43.259Z,1088
2018-08-23T08:32:04.846Z,1092
2018-08-23T08:32:25.655Z,1088
2018-08-23T08:32:47.313Z,1096
2018-08-23T08:33:08.309Z,1100
2018-08-23T08:33:29.618Z,1092
2018-08-23T08:33:50.097Z,1096
2018-08-23T08:34:11.300Z,1092
2018-08-23T08:34:32.970Z,1096
2018-08-23T08:34:53.960Z,1096
2018-08-23T08:35:14.765Z,1096
2018-08-23T08:35:35.686Z,1096
2018-08-23T08:35:55.850Z,1096
2018-08-23T08:36:16.124Z,1100
2018-08-23T08:36:36.333Z,1100
2018-08-23T08:36:56.584Z,1104
2018-08-23T08:37:16.903Z,1104
2018-08-23T08:37:37.228Z,1100
2018-08-23T08:37:57.414Z,1104
2018-08-23T08:38:17.687Z,1104
2018-08-23T08:38:37.886Z,1112
2018-08-23T08:38:58.124Z,1108
2018-08-23T08:39:18.373Z,1112
2018-08-23T08:39:38.597Z,1104
2018-08-23T08:39:58.936Z,1108
2018-08-23T08:40:19.338Z,1104
2018-08-23T08:40:39.981Z,1112
2018-08-23T08:41:00.725Z,1112
2018-08-23T08:41:21.477Z,1108
2018-08-23T08:41:43.501Z,1116
2018-08-23T08:42:07.065Z,1112
2018-08-23T08:42:28.091Z,1112
2018-08-23T08:42:49.062Z,1112
2018-08-23T08:43:10.261Z,1108
2018-08-23T08:43:30.848Z,1116
2018-08-23T08:43:51.326Z,1116
2018-08-23T08:44:11.649Z,1116
2018-08-23T08:44:32.027Z,1116
2018-08-23T08:44:52.449Z,1120
2018-08-23T08:45:12.642Z,1132
2018-08-23T08:45:33.225Z,1116
2018-08-23T08:45:53.462Z,1112
2018-08-23T08:46:13.799Z,1116
2018-08-23T08:46:33.981Z,1120
2018-08-23T08:46:54.172Z,1124
2018-08-23T08:47:15.740Z,1120
2018-08-23T08:47:37.146Z,1128
2018-08-23T08:47:57.417Z,1124
2018-08-23T08:48:17.637Z,1124
2018-08-23T08:48:37.993Z,1124
2018-08-23T08:48:58.385Z,1120
2018-08-23T08:49:18.692Z,1116
2018-08-23T08:49:38.996Z,1112
2018-08-23T08:49:59.318Z,1128
2018-08-23T08:50:19.634Z,1120
2018-08-23T08:50:39.926Z,1124
2018-08-23T08:51:00.315Z,1128
2018-08-23T08:51:20.503Z,1140
2018-08-23T08:51:40.726Z,1132
2018-08-23T08:52:00.946Z,1132
2018-08-23T08:52:21.456Z,1136
2018-08-23T08:52:41.711Z,1136
2018-08-23T08:53:02.022Z,1140
2018-08-23T08:53:22.702Z,1136
2018-08-23T08:53:42.866Z,1136
2018-08-23T08:54:03.680Z,1140
2018-08-23T08:54:24.286Z,1140
2018-08-23T08:54:44.763Z,1132
2018-08-23T08:55:04.982Z,1140
2018-08-23T08:55:27.153Z,1140
2018-08-23T08:55:47.979Z,1140
2018-08-23T08:56:08.501Z,1144
2018-08-23T08:56:28.775Z,1140
2018-08-23T08:56:49.217Z,1140
2018-08-23T08:57:09.611Z,1144
2018-08-23T08:57:29.859Z,1148
2018-08-23T08:57:50.212Z,1144
2018-08-23T08:58:10.605Z,1148
2018-08-23T08:58:32.375Z,1164
2018-08-23T08:58:53.854Z,1156
2018-08-23T08:59:14.205Z,1148
2018-08-23T08:59:34.436Z,1152
2018-08-23T08:59:54.685Z,1160
2018-08-23T09:00:14.887Z,1148
2018-08-23T09:00:35.116Z,1148
2018-08-23T09:00:55.281Z,1152
2018-08-23T09:01:15.681Z,1152
2018-08-23T09:01:36.185Z,1160
2018-08-23T09:01:56.574Z,1160
2018-08-23T09:02:16.997Z,1156
2018-08-23T09:02:37.735Z,1160
2018-08-23T09:02:59.068Z,1152
2018-08-23T09:03:19.322Z,1156
2018-08-23T09:03:39.578Z,1144
2018-08-23T09:03:59.870Z,1160
2018-08-23T09:04:20.156Z,1152
2018-08-23T09:04:40.495Z,1164
2018-08-23T09:05:00.797Z,1156
2018-08-23T09:05:21.439Z,1160
2018-08-23T09:05:42.111Z,1160
2018-08-23T09:06:02.776Z,1168
2018-08-23T09:06:23.050Z,1168
2018-08-23T09:06:43.357Z,1168
2018-08-23T09:07:04.079Z,1172
2018-08-23T09:07:24.629Z,1172
2018-08-23T09:07:45.446Z,1172
2018-08-23T09:08:05.819Z,1172
2018-08-23T09:08:26.754Z,1180
2018-08-23T09:08:48.089Z,1176
2018-08-23T09:09:08.531Z,1172
2018-08-23T09:09:28.815Z,1180
2018-08-23T09:09:49.679Z,1172
2018-08-23T09:10:10.154Z,1176
2018-08-23T09:10:31.138Z,1180
2018-08-23T09:10:52.626Z,1176
2018-08-23T09:11:12.913Z,1164
2018-08-23T09:11:33.161Z,1200
2018-08-23T09:11:53.549Z,1196
2018-08-23T09:12:13.945Z,1184
2018-08-23T09:12:34.351Z,1184
2018-08-23T09:12:54.627Z,1188
2018-08-23T09:13:14.927Z,1192
2018-08-23T09:13:37.036Z,1188
2018-08-23T09:13:58.285Z,1180
2018-08-23T09:14:19.284Z,1200
2018-08-23T09:14:39.613Z,1188
2018-08-23T09:15:00.005Z,1196
2018-08-23T09:15:20.253Z,1188
2018-08-23T09:15:40.643Z,1196
2018-08-23T09:16:00.912Z,1192
2018-08-23T09:16:21.311Z,1200
2018-08-23T09:16:41.713Z,1192
2018-08-23T09:17:01.944Z,1192
2018-08-23T09:17:22.214Z,1200
2018-08-23T09:17:42.480Z,1200
2018-08-23T09:18:02.671Z,1208
2018-08-23T09:18:22.985Z,1208
2018-08-23T09:18:43.339Z,1204
2018-08-23T09:19:03.488Z,1208
2018-08-23T09:19:23.847Z,1208
2018-08-23T09:19:44.154Z,1212
2018-08-23T09:20:04.472Z,1208
2018-08-23T09:20:24.917Z,1204
2018-08-23T09:20:45.883Z,1212
2018-08-23T09:21:06.228Z,1208
2018-08-23T09:21:26.450Z,1216
2018-08-23T09:21:46.706Z,1212
2018-08-23T09:22:06.985Z,1216
2018-08-23T09:22:27.535Z,1216
2018-08-23T09:22:47.999Z,1208
2018-08-23T09:23:08.197Z,1212
2018-08-23T09:23:29.444Z,1216
2018-08-23T09:23:51.329Z,1220
2018-08-23T09:25:07.959Z,1204
2018-08-23T09:25:28.234Z,1232
2018-08-23T09:25:48.520Z,1228
2018-08-23T09:26:09.110Z,1232
2018-08-23T09:26:30.939Z,1236
2018-08-23T09:26:51.159Z,1244
2018-08-23T09:27:11.529Z,1236
2018-08-23T09:27:31.767Z,1236
2018-08-23T09:27:52.081Z,1232
2018-08-23T09:28:12.597Z,1240
2018-08-23T09:28:33.059Z,1240
2018-08-23T09:28:53.319Z,1240
2018-08-23T09:29:14.116Z,1236
2018-08-23T09:29:34.881Z,1236
2018-08-23T09:29:55.090Z,1244
2018-08-23T09:30:15.425Z,1248
2018-08-23T09:30:36.504Z,1252
2018-08-23T09:30:57.393Z,1248
2018-08-23T09:31:17.751Z,1240
2018-08-23T09:31:38.139Z,1248
2018-08-23T09:31:58.630Z,1252
2018-08-23T09:32:18.899Z,1252
2018-08-23T09:32:39.232Z,1256
2018-08-23T09:33:00.131Z,1256
2018-08-23T09:33:20.548Z,1252
2018-08-23T09:33:40.990Z,1256
2018-08-23T09:34:01.741Z,1256
2018-08-23T09:34:22.393Z,1256
2018-08-23T09:34:42.687Z,1264
2018-08-23T09:35:03.134Z,1264
2018-08-23T09:35:24.889Z,1256
2018-08-23T09:35:48.273Z,1260
2018-08-23T09:36:11.691Z,1276
2018-08-23T09:36:32.951Z,1260
2018-08-23T09:36:53.995Z,1264
2018-08-23T09:37:14.757Z,1264
2018-08-23T09:37:35.461Z,1268
2018-08-23T09:37:57.583Z,1276
2018-08-23T09:38:19.776Z,1272
2018-08-23T09:38:40.324Z,1272
2018-08-23T09:39:01.222Z,1260
2018-08-23T09:39:21.561Z,1264
2018-08-23T09:39:42.201Z,1268
2018-08-23T09:40:03.609Z,1276
2018-08-23T09:40:25.522Z,1268
2018-08-23T09:40:46.158Z,1280
2018-08-23T09:41:06.570Z,1272
2018-08-23T09:41:27.677Z,1268
2018-08-23T09:41:48.871Z,1272
2018-08-23T09:42:10.675Z,1272
2018-08-23T09:42:31.287Z,1272
2018-08-23T09:42:52.096Z,1272
2018-08-23T09:43:13.064Z,1276
2018-08-23T09:43:33.334Z,1276
2018-08-23T09:43:53.603Z,1268
2018-08-23T09:44:13.999Z,1260
2018-08-23T09:44:34.457Z,1268
2018-08-23T09:44:54.802Z,1268
2018-08-23T09:45:15.155Z,1272
2018-08-23T09:45:35.671Z,1276
2018-08-23T09:45:55.956Z,1272
2018-08-23T09:46:16.272Z,1272
2018-08-23T09:46:37.365Z,1276
2018-08-23T09:46:58.951Z,1276
2018-08-23T09:47:20.036Z,1276
2018-08-23T09:47:40.499Z,1276
2018-08-23T09:48:00.891Z,1276
2018-08-23T09:48:21.274Z,1280
2018-08-23T09:48:41.845Z,1280
2018-08-23T09:49:02.212Z,1280
2018-08-23T09:49:22.510Z,1272
2018-08-23T09:49:43.234Z,1276
2018-08-23T09:50:03.595Z,1276
2018-08-23T09:50:23.938Z,1276
2018-08-23T09:50:44.216Z,1280
2018-08-23T09:51:04.449Z,1284
2018-08-23T09:51:24.699Z,1280
2018-08-23T09:51:45.009Z,1288
2018-08-23T09:52:05.410Z,1284
2018-08-23T09:52:25.750Z,1292
2018-08-23T09:52:46.052Z,1284
2018-08-23T09:53:06.304Z,1280
2018-08-23T09:53:26.626Z,1300
2018-08-23T09:53:46.866Z,1288
2018-08-23T09:54:07.172Z,1284
2018-08-23T09:54:27.460Z,1276
2018-08-23T09:54:47.769Z,1284
2018-08-23T09:55:08.049Z,1288
2018-08-23T09:55:28.327Z,1292
2018-08-23T09:55:48.541Z,1288
2018-08-23T09:56:08.848Z,1296
2018-08-23T09:56:29.097Z,1296
2018-08-23T09:56:49.679Z,1292
2018-08-23T09:57:09.952Z,1304
2018-08-23T09:57:30.251Z,1304
2018-08-23T09:57:50.518Z,1292
2018-08-23T09:58:10.729Z,1292
2018-08-23T09:58:31.149Z,1300
2018-08-23T09:58:51.478Z,1300
2018-08-23T09:59:12.941Z,1304
2018-08-23T09:59:33.299Z,1304
2018-08-23T09:59:53.740Z,1304
2018-08-23T10:00:14.127Z,1312
2018-08-23T10:00:34.632Z,1316
2018-08-23T10:00:55.082Z,1316
2018-08-23T10:01:15.706Z,1312
2018-08-23T10:01:36.597Z,1316
2018-08-23T10:01:57.545Z,1316
2018-08-23T10:02:18.049Z,1320
2018-08-23T10:02:38.676Z,1320
2018-08-23T10:02:59.677Z,1324
2018-08-23T10:03:20.389Z,1320
2018-08-23T10:03:41.915Z,1320
2018-08-23T10:04:02.206Z,1320
2018-08-23T10:04:22.536Z,1324
2018-08-23T10:04:43.350Z,1324
2018-08-23T10:05:04.040Z,1324
2018-08-23T10:05:24.396Z,1320
2018-08-23T10:05:44.735Z,1324
2018-08-23T10:06:05.144Z,1324
2018-08-23T10:06:25.616Z,1352
2018-08-23T10:06:45.967Z,1332
2018-08-23T10:07:06.429Z,1324
2018-08-23T10:07:26.906Z,1312
2018-08-23T10:07:47.193Z,1328
2018-08-23T10:08:07.845Z,1340
2018-08-23T10:08:28.214Z,1332
2018-08-23T10:08:49.003Z,1332
2018-08-23T10:09:09.758Z,1332
2018-08-23T10:09:30.124Z,1344
2018-08-23T10:11:11.740Z,1332
2018-08-23T10:11:33.931Z,1332
2018-08-23T10:11:54.972Z,1332
2018-08-23T10:12:15.836Z,1328
2018-08-23T10:12:36.542Z,1324
2018-08-23T10:12:57.281Z,1328
2018-08-23T10:13:17.725Z,1320
2018-08-23T10:13:38.806Z,1340
2018-08-23T10:14:00.873Z,1328
2018-08-23T10:14:22.507Z,1336
2018-08-23T10:14:42.860Z,1340
2018-08-23T10:15:03.322Z,1340
2018-08-23T10:15:23.848Z,1344
2018-08-23T10:15:44.572Z,1336
2018-08-23T10:16:06.345Z,1336
2018-08-23T10:16:28.228Z,1340
2018-08-23T10:16:49.239Z,1336
2018-08-23T10:17:13.811Z,1340
2018-08-23T10:17:34.710Z,1344
2018-08-23T10:17:55.326Z,1344
2018-08-23T10:18:16.956Z,1340
2018-08-23T10:18:37.313Z,1344
2018-08-23T10:18:58.125Z,1340
2018-08-23T10:19:18.829Z,1336
2018-08-23T10:19:39.147Z,1340
2018-08-23T10:20:00.146Z,1324
2018-08-23T10:20:20.735Z,1324
2018-08-23T10:20:41.124Z,1320
2018-08-23T11:49:48.512Z,1536
2018-08-23T11:50:08.683Z,1532
2018-08-23T11:50:29.016Z,1552
2018-08-23T11:50:49.295Z,1548
2018-08-23T11:51:10.534Z,1552
2018-08-23T11:51:31.854Z,1556
2018-08-23T11:51:54.166Z,1552
2018-08-23T11:52:15.054Z,1540
2018-08-23T11:52:35.232Z,1544
2018-08-23T11:52:55.493Z,1536
2018-08-23T11:53:15.886Z,1540
2018-08-23T11:53:36.450Z,1544
2018-08-23T11:53:56.385Z,1552
2018-08-23T11:54:16.605Z,1548
2018-08-23T11:54:36.884Z,1552
2018-08-23T11:54:57.103Z,1552
2018-08-23T11:55:17.313Z,1548
2018-08-23T11:55:37.538Z,1540
2018-08-23T11:55:57.790Z,1556
2018-08-23T11:56:18.110Z,1548
2018-08-23T11:56:38.575Z,1556
2018-08-23T11:56:58.800Z,1564
2018-08-23T11:57:19.146Z,1548
2018-08-23T11:57:39.446Z,1572
2018-08-23T11:57:59.876Z,1580
2018-08-23T11:58:20.289Z,1548
2018-08-23T11:58:40.556Z,1576
2018-08-23T11:59:00.811Z,1596
2018-08-23T11:59:21.651Z,1596
2018-08-23T11:59:41.979Z,1564
2018-08-23T12:00:02.556Z,1580
2018-08-23T12:00:22.958Z,1572
2018-08-23T12:00:43.362Z,1580
2018-08-23T12:01:03.655Z,1580
2018-08-23T12:01:23.950Z,1572
2018-08-23T12:01:44.362Z,1572
2018-08-23T12:02:04.788Z,1584
2018-08-23T12:02:25.079Z,1596
2018-08-23T12:02:45.729Z,1592
2018-08-23T12:03:05.970Z,1604
2018-08-23T12:03:26.249Z,1588
2018-08-23T12:03:46.429Z,1600
2018-08-23T12:04:07.480Z,1596
2018-08-23T12:04:27.824Z,1588
2018-08-23T12:04:48.145Z,1580
2018-08-23T12:05:08.592Z,1600
2018-08-23T12:05:28.806Z,1604
2018-08-23T12:05:49.137Z,1600
2018-08-23T12:06:09.589Z,1592
2018-08-23T12:06:29.929Z,1608
2018-08-23T12:06:50.225Z,1588
2018-08-23T12:07:10.553Z,1620
2018-08-23T12:07:31.224Z,1628
2018-08-23T12:07:51.759Z,1616
2018-08-23T12:08:12.495Z,1612
2018-08-23T12:08:32.775Z,1608
2018-08-23T12:08:52.947Z,1596
2018-08-23T12:09:13.184Z,1596
2018-08-23T12:09:33.544Z,1580
2018-08-23T12:09:54.305Z,1584
2018-08-23T12:10:14.584Z,1616
2018-08-23T12:10:34.868Z,1592
2018-08-23T12:10:55.048Z,1592
2018-08-23T12:11:15.347Z,1580
2018-08-23T12:11:35.636Z,1588
2018-08-23T12:11:55.949Z,1596
2018-08-23T12:12:16.190Z,1592
2018-08-23T12:12:36.432Z,1596
2018-08-23T12:12:56.968Z,1612
2018-08-23T12:13:17.237Z,1620
2018-08-23T12:13:37.557Z,1604
2018-08-23T12:13:57.882Z,1608
2018-08-23T12:14:18.209Z,1604
2018-08-23T12:14:38.540Z,1612
2018-08-23T12:14:58.978Z,1604
2018-08-23T12:15:19.512Z,1596
2018-08-23T12:15:40.123Z,1604
2018-08-23T12:16:00.429Z,1600
2018-08-23T12:16:20.747Z,1604
2018-08-23T12:16:41.208Z,1604
2018-08-23T12:17:01.519Z,1604
2018-08-23T12:17:21.853Z,1592
2018-08-23T12:17:42.213Z,1592
2018-08-23T12:18:02.494Z,1580